createdAt,value
2019-05-21T00:00:49.962Z,19.50
2019-05-21T00:03:30.825Z,19.50
2019-05-21T00:06:11.191Z,19.50
2019-05-21T00:08:51.546Z,19.40
2019-05-21T00:11:32.668Z,19.40
2019-05-21T00:14:13.217Z,19.40
2019-05-21T00:16:54.008Z,19.40
2019-05-21T00:19:34.668Z,19.40
2019-05-21T00:22:15.682Z,19.50
2019-05-21T00:24:56.709Z,19.50
2019-05-21T00:27:37.589Z,19.50
2019-05-21T00:30:18.592Z,19.50
2019-05-21T00:32:59.334Z,19.40
2019-05-21T00:35:44.373Z,19.40
2019-05-21T00:38:25.321Z,19.40
2019-05-21T00:41:06.250Z,19.40
2019-05-21T00:43:46.918Z,19.40
2019-05-21T00:46:27.854Z,19.40
2019-05-21T00:49:08.457Z,19.30
2019-05-21T00:51:49.688Z,19.40
2019-05-21T00:54:30.396Z,19.40
2019-05-21T00:57:11.875Z,19.40
2019-05-21T00:59:53.482Z,19.30
2019-05-21T01:02:34.288Z,19.30
2019-05-21T01:05:14.955Z,19.30
2019-05-21T01:07:55.498Z,19.40
2019-05-21T01:10:36.311Z,19.30
2019-05-21T01:13:16.957Z,19.30
2019-05-21T01:15:57.778Z,19.20
2019-05-21T01:18:38.746Z,19.10
2019-05-21T01:21:20.030Z,19.10
2019-05-21T01:24:01.246Z,19.30
2019-05-21T01:26:42.350Z,19.40
2019-05-21T01:29:23.052Z,19.40
2019-05-21T01:32:03.858Z,19.20
2019-05-21T01:34:44.624Z,19.40
2019-05-21T01:37:25.694Z,19.30
2019-05-21T01:40:06.298Z,19.20
2019-05-21T01:42:47.019Z,19.20
2019-05-21T01:45:27.461Z,19.40
2019-05-21T01:48:07.880Z,19.40
2019-05-21T01:50:48.750Z,19.40
2019-05-21T01:53:29.663Z,19.40
2019-05-21T01:56:10.549Z,19.40
2019-05-21T01:58:51.208Z,19.50
2019-05-21T02:01:32.377Z,19.40
2019-05-21T02:04:12.879Z,19.40
2019-05-21T02:06:53.737Z,19.40
2019-05-21T02:09:36.249Z,19.40
2019-05-21T02:12:16.943Z,19.40
2019-05-21T02:14:58.019Z,19.30
2019-05-21T02:17:39.306Z,19.20
2019-05-21T02:20:20.566Z,19.20
2019-05-21T02:23:00.956Z,19.20
2019-05-21T02:25:41.789Z,19.20
2019-05-21T02:28:22.287Z,19.20
2019-05-21T02:31:03.402Z,19.30
2019-05-21T02:33:44.623Z,19.30
2019-05-21T02:36:25.115Z,19.40
2019-05-21T02:39:05.673Z,19.30
2019-05-21T02:41:46.106Z,19.30
2019-05-21T02:44:26.682Z,19.30
2019-05-21T02:46:55.147Z,19.20
2019-05-21T02:49:42.924Z,19.20
2019-05-21T02:52:30.721Z,19.30
2019-05-21T02:55:18.892Z,19.30
2019-05-21T02:58:06.674Z,19.30
2019-05-21T03:04:03.049Z,19.30
2019-05-21T03:09:59.370Z,19.30
2019-05-21T03:12:47.140Z,19.30
2019-05-21T03:15:34.937Z,19.20
2019-05-21T03:18:23.043Z,19.20
2019-05-21T03:21:10.890Z,19.30
2019-05-21T03:23:58.724Z,19.30
2019-05-21T03:26:39.181Z,19.30
2019-05-21T03:29:19.866Z,19.30
2019-05-21T03:32:00.111Z,19.20
2019-05-21T03:37:24.094Z,19.30
2019-05-21T03:40:04.491Z,19.40
2019-05-21T03:42:45.564Z,19.40
2019-05-21T03:45:25.780Z,19.20
2019-05-21T03:48:06.829Z,19.30
2019-05-21T03:50:47.298Z,19.30
2019-05-21T03:53:28.027Z,19.20
2019-05-21T03:56:08.811Z,19.20
2019-05-21T03:58:49.736Z,19.20
2019-05-21T04:01:30.463Z,19.20
2019-05-21T04:04:11.367Z,19.10
2019-05-21T04:06:52.819Z,19.10
2019-05-21T04:09:33.812Z,19.20
2019-05-21T04:12:14.700Z,19.20
2019-05-21T04:14:59.762Z,19.20
2019-05-21T04:17:44.864Z,19.20
2019-05-21T04:20:26.005Z,19.30
2019-05-21T04:23:06.936Z,19.30
2019-05-21T04:25:48.012Z,19.30
2019-05-21T04:28:29.274Z,19.10
2019-05-21T04:31:10.178Z,19.20
2019-05-21T04:33:51.190Z,19.20
2019-05-21T04:36:32.179Z,19.20
2019-05-21T04:39:13.191Z,19.20
2019-05-21T04:41:54.716Z,19.10
2019-05-21T04:44:35.729Z,19.00
2019-05-21T04:47:16.630Z,19.10
2019-05-21T04:49:57.999Z,19.00
2019-05-21T04:52:38.354Z,19.00
2019-05-21T04:55:19.034Z,19.10
2019-05-21T04:57:59.738Z,19.10
2019-05-21T05:00:40.507Z,19.20
2019-05-21T05:03:21.756Z,19.30
2019-05-21T05:06:02.569Z,19.20
2019-05-21T05:08:42.990Z,19.20
2019-05-21T05:11:23.892Z,19.30
2019-05-21T05:14:04.430Z,19.30
2019-05-21T05:16:45.600Z,19.30
2019-05-21T05:19:26.781Z,19.30
2019-05-21T05:22:07.238Z,19.30
2019-05-21T05:24:48.402Z,19.30
2019-05-21T05:27:29.299Z,19.30
2019-05-21T05:30:10.649Z,19.30
2019-05-21T05:32:51.534Z,19.30
2019-05-21T05:35:32.181Z,19.30
2019-05-21T05:38:12.661Z,19.10
2019-05-21T05:40:53.213Z,19.10
2019-05-21T05:43:33.634Z,19.10
2019-05-21T05:46:14.153Z,19.20
2019-05-21T05:48:57.617Z,19.30
2019-05-21T05:51:38.334Z,19.30
2019-05-21T05:54:19.324Z,19.30
2019-05-21T05:57:00.081Z,19.30
2019-05-21T05:59:41.060Z,19.30
2019-05-21T06:02:09.539Z,19.20
2019-05-21T06:04:57.413Z,19.30
2019-05-21T06:07:58.799Z,19.20
2019-05-21T06:10:34.803Z,19.10
2019-05-21T06:13:22.589Z,18.90
2019-05-21T06:16:10.396Z,18.70
2019-05-21T06:18:58.180Z,18.80
2019-05-21T06:21:46.354Z,19.00
2019-05-21T06:24:34.146Z,18.90
2019-05-21T06:27:22.322Z,18.90
2019-05-21T06:30:10.375Z,18.90
2019-05-21T06:32:51.378Z,19.00
2019-05-21T06:35:32.418Z,19.10
2019-05-21T06:38:17.728Z,19.10
2019-05-21T06:40:55.278Z,19.20
2019-05-21T06:43:35.521Z,19.20
2019-05-21T06:46:16.224Z,19.20
2019-05-21T06:48:56.875Z,19.30
2019-05-21T06:51:37.493Z,19.30
2019-05-21T06:54:18.101Z,19.20
2019-05-21T06:56:58.937Z,19.20
2019-05-21T06:59:39.916Z,19.00
2019-05-21T07:02:20.692Z,18.90
2019-05-21T07:05:01.455Z,19.10
2019-05-21T07:07:42.069Z,19.10
2019-05-21T07:10:23.301Z,19.10
2019-05-21T07:13:03.923Z,19.10
2019-05-21T07:15:44.607Z,19.10
2019-05-21T07:18:25.518Z,19.10
2019-05-21T07:21:05.925Z,19.00
2019-05-21T07:23:46.361Z,19.10
2019-05-21T07:26:26.805Z,19.00
2019-05-21T07:29:07.349Z,18.90
2019-05-21T07:31:48.133Z,18.90
2019-05-21T07:34:28.899Z,18.70
2019-05-21T07:37:09.717Z,18.30
2019-05-21T07:39:50.250Z,17.80
2019-05-21T07:42:30.957Z,17.50
2019-05-21T07:45:11.833Z,17.90
2019-05-21T07:47:53.131Z,17.90
2019-05-21T07:50:34.286Z,18.20
2019-05-21T07:53:15.414Z,18.10
2019-05-21T07:55:56.292Z,18.30
2019-05-21T07:58:37.169Z,18.50
2019-05-21T08:01:17.851Z,18.70
2019-05-21T08:03:59.030Z,18.90
2019-05-21T08:06:39.266Z,18.50
2019-05-21T08:09:19.896Z,18.10
2019-05-21T08:12:00.893Z,17.80
2019-05-21T08:14:41.816Z,17.60
2019-05-21T08:17:22.694Z,17.70
2019-05-21T08:20:09.607Z,17.60
2019-05-21T08:22:45.487Z,17.80
2019-05-21T08:25:26.378Z,17.90
2019-05-21T08:28:06.666Z,17.80
2019-05-21T08:30:47.206Z,17.70
2019-05-21T08:33:27.893Z,17.90
2019-05-21T08:36:08.853Z,17.90
2019-05-21T08:38:49.735Z,17.90
2019-05-21T08:41:30.486Z,17.90
2019-05-21T08:44:11.412Z,17.90
2019-05-21T08:46:53.766Z,17.90
2019-05-21T08:49:32.717Z,17.90
2019-05-21T08:52:20.508Z,17.80
2019-05-21T08:55:08.452Z,17.70
2019-05-21T08:58:06.285Z,17.90
2019-05-21T09:00:46.067Z,17.90
2019-05-21T09:03:33.858Z,17.90
2019-05-21T09:06:21.664Z,17.80
2019-05-21T09:09:09.453Z,17.70
2019-05-21T09:11:57.304Z,17.90
2019-05-21T09:14:45.164Z,17.70
2019-05-21T09:17:32.975Z,17.80
2019-05-21T09:20:13.226Z,17.70
2019-05-21T09:22:54.337Z,17.80
2019-05-21T09:25:35.119Z,17.60
2019-05-21T09:28:16.118Z,17.60
2019-05-21T09:30:56.575Z,17.70
2019-05-21T09:33:37.157Z,17.60
2019-05-21T09:36:17.935Z,17.60
2019-05-21T09:38:58.950Z,17.40
2019-05-21T09:41:39.449Z,17.60
2019-05-21T09:44:20.207Z,17.80
2019-05-21T09:47:00.800Z,17.80
2019-05-21T09:49:41.738Z,17.80
2019-05-21T09:52:22.488Z,17.90
2019-05-21T09:55:03.243Z,17.60
2019-05-21T09:58:03.318Z,17.60
2019-05-21T10:01:02.734Z,17.40
2019-05-21T10:04:02.300Z,17.50
2019-05-21T10:06:42.542Z,17.50
2019-05-21T10:09:23.606Z,17.40
2019-05-21T10:12:04.165Z,17.30
2019-05-21T10:14:44.598Z,17.50
2019-05-21T10:17:25.439Z,17.50
2019-05-21T10:20:05.934Z,17.50
2019-05-21T10:22:46.878Z,17.60
2019-05-21T10:25:27.689Z,17.60
2019-05-21T10:28:08.381Z,17.70
2019-05-21T10:30:49.410Z,17.50
2019-05-21T10:33:30.278Z,17.40
2019-05-21T10:36:11.241Z,17.30
2019-05-21T10:38:39.691Z,17.30
2019-05-21T10:41:27.778Z,17.40
2019-05-21T10:44:15.589Z,17.50
2019-05-21T10:47:03.661Z,17.60
2019-05-21T10:49:51.540Z,17.50
2019-05-21T10:52:39.638Z,17.50
2019-05-21T10:55:27.428Z,17.40
2019-05-21T10:58:15.221Z,17.40
2019-05-21T11:01:22.214Z,17.40
2019-05-21T11:04:29.297Z,17.40
2019-05-21T11:10:16.146Z,17.40
2019-05-21T11:13:04.317Z,17.30
2019-05-21T11:15:52.123Z,17.40
2019-05-21T11:18:39.921Z,17.60
2019-05-21T11:21:27.715Z,17.60
2019-05-21T11:24:15.550Z,17.50
2019-05-21T11:27:04.831Z,17.50
2019-05-21T11:29:45.840Z,17.40
2019-05-21T11:32:26.415Z,17.60
2019-05-21T11:35:07.131Z,17.50
2019-05-21T11:37:48.177Z,17.50
2019-05-21T11:40:28.875Z,17.40
2019-05-21T11:43:09.451Z,17.50
2019-05-21T11:45:50.437Z,17.50
2019-05-21T11:48:31.194Z,17.50
2019-05-21T11:51:12.809Z,17.40
2019-05-21T11:53:53.673Z,17.40
2019-05-21T11:56:36.262Z,17.40
2019-05-21T11:59:17.746Z,17.50
2019-05-21T12:01:58.642Z,17.60
2019-05-21T12:04:39.057Z,17.40
2019-05-21T12:07:19.777Z,17.50
2019-05-21T12:10:00.807Z,17.40
2019-05-21T12:12:41.524Z,17.20
2019-05-21T12:15:22.557Z,17.20
2019-05-21T12:18:02.933Z,17.40
2019-05-21T12:20:43.935Z,17.20
2019-05-21T12:23:24.406Z,17.20
2019-05-21T12:26:05.248Z,17.30
2019-05-21T12:28:46.083Z,17.30
2019-05-21T12:31:26.599Z,17.30
2019-05-21T12:34:07.519Z,17.40
2019-05-21T12:36:48.523Z,17.50
2019-05-21T12:39:29.614Z,17.60
2019-05-21T12:42:10.193Z,17.50
2019-05-21T12:44:50.658Z,17.50
2019-05-21T12:47:31.435Z,17.60
2019-05-21T12:50:11.850Z,17.70
2019-05-21T12:52:52.435Z,17.50
2019-05-21T12:55:32.865Z,17.40
2019-05-21T12:58:13.450Z,17.40
2019-05-21T13:00:54.683Z,17.40
2019-05-21T13:03:35.246Z,17.50
2019-05-21T13:06:16.126Z,17.50
2019-05-21T13:08:56.938Z,17.50
2019-05-21T13:11:37.798Z,17.50
2019-05-21T13:14:19.010Z,17.40
2019-05-21T13:17:00.023Z,17.50
2019-05-21T13:19:41.051Z,17.50
2019-05-21T13:22:21.790Z,17.40
2019-05-21T13:25:02.605Z,17.30
2019-05-21T13:27:43.536Z,17.30
2019-05-21T13:30:24.246Z,17.40
2019-05-21T13:33:05.181Z,17.50
2019-05-21T13:35:45.986Z,17.50
2019-05-21T13:38:27.086Z,17.40
2019-05-21T13:41:09.259Z,17.50
2019-05-21T13:43:50.357Z,17.40
2019-05-21T13:46:31.059Z,17.40
2019-05-21T13:49:12.014Z,17.40
2019-05-21T13:51:52.461Z,17.40
2019-05-21T13:54:33.159Z,17.50
2019-05-21T13:57:13.654Z,17.50
2019-05-21T13:59:54.342Z,17.50
2019-05-21T14:02:34.590Z,17.40
2019-05-21T14:05:16.069Z,17.30
2019-05-21T14:07:56.432Z,17.30
2019-05-21T14:10:37.452Z,17.30
2019-05-21T14:13:18.606Z,17.20
2019-05-21T14:15:59.458Z,17.20
2019-05-21T14:18:40.365Z,17.10
2019-05-21T14:21:20.922Z,17.10
2019-05-21T14:24:01.595Z,17.20
2019-05-21T14:26:42.582Z,17.20
2019-05-21T14:29:23.262Z,17.20
2019-05-21T14:32:04.220Z,17.10
2019-05-21T14:35:00.350Z,17.10
2019-05-21T14:37:27.114Z,17.00
2019-05-21T14:40:07.789Z,17.10
2019-05-21T14:42:59.159Z,17.00
2019-05-21T14:45:34.254Z,17.10
2019-05-21T14:48:13.932Z,17.00
2019-05-21T14:50:54.768Z,17.10
2019-05-21T14:53:35.494Z,17.00
2019-05-21T14:56:16.126Z,17.00
2019-05-21T14:58:56.974Z,17.00
2019-05-21T15:01:38.128Z,16.90
2019-05-21T15:04:18.717Z,16.90
2019-05-21T15:06:59.530Z,16.80
2019-05-21T15:09:40.393Z,16.50
2019-05-21T15:12:21.033Z,16.50
2019-05-21T15:15:01.829Z,16.70
2019-05-21T15:17:42.425Z,16.70
2019-05-21T15:20:42.509Z,16.70
2019-05-21T15:23:10.998Z,16.40
2019-05-21T15:25:39.799Z,16.50
2019-05-21T15:28:27.634Z,16.60
2019-05-21T15:31:15.454Z,16.50
2019-05-21T15:34:03.245Z,16.50
2019-05-21T15:36:51.077Z,16.60
2019-05-21T15:39:39.186Z,16.70
2019-05-21T15:42:27.092Z,16.60
2019-05-21T15:45:15.056Z,16.70
2019-05-21T15:48:02.882Z,16.70
2019-05-21T15:50:51.035Z,16.60
2019-05-21T15:53:38.831Z,16.70
2019-05-21T15:56:26.597Z,16.60
2019-05-21T15:59:14.774Z,16.60
2019-05-21T16:02:02.564Z,16.50
2019-05-21T16:04:50.592Z,16.60
2019-05-21T16:07:38.505Z,16.60
2019-05-21T16:10:26.292Z,16.50
2019-05-21T16:13:14.177Z,16.70
2019-05-21T16:16:08.994Z,16.60
2019-05-21T16:18:56.765Z,16.60
2019-05-21T16:21:44.900Z,16.60
2019-05-21T16:24:32.684Z,16.50
2019-05-21T16:27:20.770Z,16.40
2019-05-21T16:30:08.821Z,16.50
2019-05-21T16:32:56.615Z,16.40
2019-05-21T16:35:44.406Z,16.60
2019-05-21T16:38:32.198Z,16.50
2019-05-21T16:41:12.823Z,16.50
2019-05-21T16:43:53.940Z,16.40
2019-05-21T16:46:35.150Z,16.40
2019-05-21T16:49:16.397Z,16.30
2019-05-21T16:51:57.165Z,16.30
2019-05-21T16:54:37.666Z,16.20
2019-05-21T16:57:18.623Z,16.50
2019-05-21T16:59:59.009Z,16.40
2019-05-21T17:02:39.895Z,16.30
2019-05-21T17:05:20.767Z,16.20
2019-05-21T17:08:01.515Z,16.20
2019-05-21T17:10:42.821Z,16.30
2019-05-21T17:13:23.356Z,16.20
2019-05-21T17:16:04.473Z,16.20
2019-05-21T17:18:44.931Z,16.30
2019-05-21T17:21:25.492Z,16.20
2019-05-21T17:24:06.158Z,16.10
2019-05-21T17:26:46.731Z,16.20
2019-05-21T17:29:27.368Z,16.30
2019-05-21T17:32:07.854Z,16.30
2019-05-21T17:34:48.547Z,16.40
2019-05-21T17:37:28.965Z,16.20
2019-05-21T17:40:09.482Z,16.30
2019-05-21T17:42:50.490Z,16.40
2019-05-21T17:45:31.826Z,16.50
2019-05-21T17:48:12.160Z,16.30
2019-05-21T17:50:53.078Z,16.20
2019-05-21T17:53:33.772Z,16.30
2019-05-21T17:56:14.878Z,16.60
2019-05-21T17:58:55.692Z,16.60
2019-05-21T18:01:36.529Z,16.50
2019-05-21T18:04:17.152Z,16.40
2019-05-21T18:06:57.646Z,16.20
2019-05-21T18:09:38.889Z,16.20
2019-05-21T18:12:31.758Z,16.30
2019-05-21T18:15:03.454Z,16.30
2019-05-21T18:17:44.803Z,16.50
2019-05-21T18:20:25.202Z,16.40
2019-05-21T18:26:07.469Z,16.40
2019-05-21T18:28:55.287Z,16.30
2019-05-21T18:31:43.150Z,16.30
2019-05-21T18:34:31.282Z,16.30
2019-05-21T18:37:19.108Z,16.30
2019-05-21T18:40:00.370Z,16.50
2019-05-21T18:42:40.823Z,16.40
2019-05-21T18:45:21.494Z,16.50
2019-05-21T18:48:02.310Z,16.30
2019-05-21T18:50:43.091Z,16.20
2019-05-21T18:53:23.876Z,16.20
2019-05-21T18:56:04.306Z,16.40
2019-05-21T18:58:45.167Z,16.40
2019-05-21T19:01:26.185Z,16.60
2019-05-21T19:04:06.630Z,16.70
2019-05-21T19:06:47.060Z,16.50
2019-05-21T19:09:28.238Z,16.50
2019-05-21T19:12:08.586Z,16.40
2019-05-21T19:14:49.446Z,16.20
2019-05-21T19:17:35.500Z,16.30
2019-05-21T19:20:12.752Z,16.10
2019-05-21T19:22:53.322Z,16.20
2019-05-21T19:25:33.729Z,16.10
2019-05-21T19:28:14.710Z,16.00
2019-05-21T19:30:55.231Z,16.00
2019-05-21T19:33:35.834Z,16.10
2019-05-21T19:36:16.702Z,15.80
2019-05-21T19:38:57.117Z,15.70
2019-05-21T19:41:37.979Z,15.80
2019-05-21T19:44:18.540Z,15.90
2019-05-21T19:46:59.387Z,15.70
2019-05-21T19:49:40.250Z,15.70
2019-05-21T19:52:20.613Z,15.70
2019-05-21T19:55:01.314Z,15.60
2019-05-21T19:57:42.331Z,16.10
2019-05-21T20:00:24.071Z,15.90
2019-05-21T20:03:04.470Z,16.10
2019-05-21T20:05:45.301Z,15.90
2019-05-21T20:08:26.025Z,15.70
2019-05-21T20:11:07.442Z,16.10
2019-05-21T20:13:48.438Z,15.80
2019-05-21T20:16:29.552Z,15.70
2019-05-21T20:19:12.073Z,15.70
2019-05-21T20:21:53.113Z,15.80
2019-05-21T20:24:34.677Z,15.80
2019-05-21T20:27:15.646Z,15.50
2019-05-21T20:30:10.174Z,15.70
2019-05-21T20:32:39.027Z,15.80
2019-05-21T20:35:21.941Z,15.80
2019-05-21T20:38:03.526Z,15.80
2019-05-21T20:40:44.663Z,15.80
2019-05-21T20:43:25.413Z,15.80
2019-05-21T20:46:07.666Z,15.80
2019-05-21T20:48:48.159Z,15.90
2019-05-21T20:51:28.699Z,16.00
2019-05-21T20:54:10.901Z,15.90
2019-05-21T20:56:51.959Z,16.00
2019-05-21T20:59:32.586Z,16.00
2019-05-21T21:02:14.608Z,16.10
2019-05-21T21:04:55.190Z,16.00
2019-05-21T21:07:37.830Z,15.80
2019-05-21T21:10:19.266Z,15.90
2019-05-21T21:12:59.958Z,15.80
2019-05-21T21:15:41.087Z,15.70
2019-05-21T21:18:22.597Z,16.00
2019-05-21T21:21:03.329Z,16.00
2019-05-21T21:23:44.283Z,15.80
2019-05-21T21:26:25.826Z,15.90
2019-05-21T21:29:07.194Z,15.70
2019-05-21T21:31:47.655Z,15.80
2019-05-21T21:34:28.171Z,15.70
2019-05-21T21:37:09.275Z,15.90
2019-05-21T21:39:49.654Z,15.90
2019-05-21T21:42:30.523Z,15.80
2019-05-21T21:45:11.686Z,15.70
2019-05-21T21:50:48.726Z,15.30
2019-05-21T21:53:36.597Z,15.20
2019-05-21T21:56:24.370Z,15.30
2019-05-21T21:59:12.173Z,15.60
2019-05-21T22:02:20.115Z,15.50
2019-05-21T22:05:08.284Z,15.40
2019-05-21T22:10:55.007Z,15.30
2019-05-21T22:13:42.905Z,15.50
2019-05-21T22:16:30.819Z,15.40
2019-05-21T22:28:03.716Z,15.50
2019-05-21T22:30:51.757Z,15.20
2019-05-21T22:33:39.936Z,15.30
2019-05-21T22:39:20.223Z,15.00
2019-05-21T22:42:01.292Z,15.10
2019-05-21T22:44:42.899Z,15.20
2019-05-21T22:47:23.790Z,15.10
2019-05-21T22:50:04.634Z,15.10
2019-05-21T22:52:45.430Z,14.90
2019-05-21T22:55:26.345Z,14.90
2019-05-21T22:58:07.427Z,14.90
2019-05-21T23:00:48.146Z,15.00
2019-05-21T23:03:29.166Z,15.10
2019-05-21T23:06:09.642Z,15.10
2019-05-21T23:08:50.466Z,15.00
2019-05-21T23:11:31.233Z,15.10
2019-05-21T23:14:11.475Z,15.00
2019-05-21T23:16:52.538Z,14.80
2019-05-21T23:19:32.919Z,14.90
2019-05-21T23:22:14.118Z,15.00
2019-05-21T23:24:55.306Z,15.20
2019-05-21T23:27:36.210Z,14.90
2019-05-21T23:30:17.731Z,15.00
2019-05-21T23:32:58.431Z,15.10
2019-05-21T23:35:39.522Z,15.00
2019-05-21T23:38:21.631Z,15.20
2019-05-21T23:41:03.420Z,14.90
2019-05-21T23:43:43.941Z,15.00
2019-05-21T23:46:24.563Z,14.90
2019-05-21T23:49:05.090Z,14.80
2019-05-21T23:51:45.966Z,15.10
2019-05-21T23:54:27.182Z,15.10
2019-05-21T23:57:09.487Z,15.30
2019-05-21T23:59:50.779Z,15.10
